sensor_id;sensor_type;location;lat;lon;timestamp;P1;durP1;ratioP1;P2;durP2;ratioP2
68910;SDS011;55953;51.650;-0.522;2023-05-24T00:00:28;10.50;;;4.80;;
68910;SDS011;55953;51.650;-0.522;2023-05-24T00:03:17;8.70;;;4.90;;
68910;SDS011;55953;51.650;-0.522;2023-05-24T00:05:45;7.50;;;4.20;;
68910;SDS011;55953;51.650;-0.522;2023-05-24T00:08:13;9.50;;;4.80;;
68910;SDS011;55953;51.650;-0.522;2023-05-24T00:10:44;8.00;;;4.30;;
68910;SDS011;55953;51.650;-0.522;2023-05-24T00:13:13;9.70;;;4.40;;
68910;SDS011;55953;51.650;-0.522;2023-05-24T00:15:42;8.00;;;4.30;;
68910;SDS011;55953;51.650;-0.522;2023-05-24T00:18:10;10.70;;;5.00;;
68910;SDS011;55953;51.650;-0.522;2023-05-24T00:20:38;9.60;;;5.20;;
68910;SDS011;55953;51.650;-0.522;2023-05-24T00:23:06;9.00;;;5.10;;
68910;SDS011;55953;51.650;-0.522;2023-05-24T00:25:34;15.30;;;6.40;;
68910;SDS011;55953;51.650;-0.522;2023-05-24T00:28:02;10.70;;;5.40;;
68910;SDS011;55953;51.650;-0.522;2023-05-24T00:30:30;10.10;;;4.90;;
68910;SDS011;55953;51.650;-0.522;2023-05-24T00:32:58;10.20;;;5.90;;
68910;SDS011;55953;51.650;-0.522;2023-05-24T00:35:27;11.30;;;5.90;;
68910;SDS011;55953;51.650;-0.522;2023-05-24T00:37:54;10.40;;;5.30;;
68910;SDS011;55953;51.650;-0.522;2023-05-24T00:40:23;10.80;;;5.50;;
68910;SDS011;55953;51.650;-0.522;2023-05-24T00:42:51;10.80;;;5.40;;
68910;SDS011;55953;51.650;-0.522;2023-05-24T00:45:19;12.20;;;5.50;;
68910;SDS011;55953;51.650;-0.522;2023-05-24T00:47:48;9.40;;;5.50;;
68910;SDS011;55953;51.650;-0.522;2023-05-24T00:50:16;12.10;;;5.50;;
68910;SDS011;55953;51.650;-0.522;2023-05-24T00:52:46;11.80;;;5.20;;
68910;SDS011;55953;51.650;-0.522;2023-05-24T00:55:17;13.30;;;5.90;;
68910;SDS011;55953;51.650;-0.522;2023-05-24T00:57:45;10.90;;;5.50;;
68910;SDS011;55953;51.650;-0.522;2023-05-24T01:00:15;10.20;;;5.60;;
68910;SDS011;55953;51.650;-0.522;2023-05-24T01:02:43;11.50;;;6.10;;
68910;SDS011;55953;51.650;-0.522;2023-05-24T01:05:12;11.90;;;5.70;;
68910;SDS011;55953;51.650;-0.522;2023-05-24T01:11:00;12.30;;;5.20;;
68910;SDS011;55953;51.650;-0.522;2023-05-24T01:13:47;13.70;;;6.10;;
68910;SDS011;55953;51.650;-0.522;2023-05-24T01:16:48;9.20;;;5.40;;
68910;SDS011;55953;51.650;-0.522;2023-05-24T01:28:10;11.70;;;5.70;;
68910;SDS011;55953;51.650;-0.522;2023-05-24T01:30:42;11.80;;;5.70;;
68910;SDS011;55953;51.650;-0.522;2023-05-24T01:33:11;13.40;;;5.60;;
68910;SDS011;55953;51.650;-0.522;2023-05-24T01:35:39;8.40;;;5.40;;
68910;SDS011;55953;51.650;-0.522;2023-05-24T01:38:09;9.10;;;5.20;;
68910;SDS011;55953;51.650;-0.522;2023-05-24T01:40:40;9.70;;;5.20;;
68910;SDS011;55953;51.650;-0.522;2023-05-24T01:43:29;10.80;;;5.50;;
68910;SDS011;55953;51.650;-0.522;2023-05-24T01:46:14;10.70;;;5.20;;
68910;SDS011;55953;51.650;-0.522;2023-05-24T01:49:02;10.80;;;5.20;;
68910;SDS011;55953;51.650;-0.522;2023-05-24T01:51:43;11.10;;;5.30;;
68910;SDS011;55953;51.650;-0.522;2023-05-24T01:54:19;8.10;;;5.00;;
68910;SDS011;55953;51.650;-0.522;2023-05-24T01:56:51;10.00;;;5.30;;
68910;SDS011;55953;51.650;-0.522;2023-05-24T01:59:21;12.80;;;5.70;;
68910;SDS011;55953;51.650;-0.522;2023-05-24T02:01:51;10.60;;;5.00;;
68910;SDS011;55953;51.650;-0.522;2023-05-24T02:04:20;14.30;;;5.60;;
68910;SDS011;55953;51.650;-0.522;2023-05-24T02:06:48;10.10;;;5.00;;
68910;SDS011;55953;51.650;-0.522;2023-05-24T02:09:16;10.20;;;5.00;;
68910;SDS011;55953;51.650;-0.522;2023-05-24T02:11:44;9.30;;;4.90;;
68910;SDS011;55953;51.650;-0.522;2023-05-24T02:14:12;10.70;;;4.90;;
68910;SDS011;55953;51.650;-0.522;2023-05-24T02:16:40;8.90;;;5.10;;
68910;SDS011;55953;51.650;-0.522;2023-05-24T02:19:09;11.90;;;5.20;;
68910;SDS011;55953;51.650;-0.522;2023-05-24T02:21:40;8.00;;;5.00;;
68910;SDS011;55953;51.650;-0.522;2023-05-24T02:24:10;8.20;;;4.90;;
68910;SDS011;55953;51.650;-0.522;2023-05-24T02:26:39;10.90;;;4.80;;
68910;SDS011;55953;51.650;-0.522;2023-05-24T02:29:07;9.80;;;5.10;;
68910;SDS011;55953;51.650;-0.522;2023-05-24T02:31:35;10.40;;;4.90;;
68910;SDS011;55953;51.650;-0.522;2023-05-24T02:34:03;9.20;;;5.20;;
68910;SDS011;55953;51.650;-0.522;2023-05-24T02:36:31;10.20;;;5.00;;
68910;SDS011;55953;51.650;-0.522;2023-05-24T02:39:01;12.20;;;5.80;;
68910;SDS011;55953;51.650;-0.522;2023-05-24T02:41:30;8.60;;;4.80;;
68910;SDS011;55953;51.650;-0.522;2023-05-24T02:43:58;7.80;;;4.50;;
68910;SDS011;55953;51.650;-0.522;2023-05-24T02:46:26;8.30;;;5.20;;
68910;SDS011;55953;51.650;-0.522;2023-05-24T02:48:54;9.40;;;5.00;;
68910;SDS011;55953;51.650;-0.522;2023-05-24T02:51:22;9.80;;;4.80;;
68910;SDS011;55953;51.650;-0.522;2023-05-24T02:53:50;10.40;;;4.60;;
68910;SDS011;55953;51.650;-0.522;2023-05-24T02:56:17;11.00;;;5.30;;
68910;SDS011;55953;51.650;-0.522;2023-05-24T02:58:45;9.70;;;4.60;;
68910;SDS011;55953;51.650;-0.522;2023-05-24T03:01:13;8.70;;;4.40;;
68910;SDS011;55953;51.650;-0.522;2023-05-24T03:03:42;9.00;;;4.50;;
68910;SDS011;55953;51.650;-0.522;2023-05-24T03:06:10;8.80;;;4.30;;
68910;SDS011;55953;51.650;-0.522;2023-05-24T03:08:40;6.90;;;4.80;;
68910;SDS011;55953;51.650;-0.522;2023-05-24T03:11:08;10.70;;;4.90;;
68910;SDS011;55953;51.650;-0.522;2023-05-24T03:13:36;11.30;;;4.80;;
68910;SDS011;55953;51.650;-0.522;2023-05-24T03:16:05;8.70;;;4.50;;
68910;SDS011;55953;51.650;-0.522;2023-05-24T03:18:33;7.60;;;4.40;;
68910;SDS011;55953;51.650;-0.522;2023-05-24T03:21:01;9.10;;;4.90;;
68910;SDS011;55953;51.650;-0.522;2023-05-24T03:23:28;9.10;;;4.30;;
68910;SDS011;55953;51.650;-0.522;2023-05-24T03:25:56;9.90;;;4.80;;
68910;SDS011;55953;51.650;-0.522;2023-05-24T03:28:24;8.60;;;4.70;;
68910;SDS011;55953;51.650;-0.522;2023-05-24T03:30:54;11.00;;;4.10;;
68910;SDS011;55953;51.650;-0.522;2023-05-24T03:33:21;11.40;;;4.30;;
68910;SDS011;55953;51.650;-0.522;2023-05-24T03:35:50;12.30;;;4.30;;
68910;SDS011;55953;51.650;-0.522;2023-05-24T03:38:18;9.70;;;4.40;;
68910;SDS011;55953;51.650;-0.522;2023-05-24T03:40:46;11.30;;;4.30;;
68910;SDS011;55953;51.650;-0.522;2023-05-24T03:45:49;10.30;;;4.20;;
68910;SDS011;55953;51.650;-0.522;2023-05-24T03:48:19;13.40;;;3.70;;
68910;SDS011;55953;51.650;-0.522;2023-05-24T03:50:51;12.70;;;4.30;;
68910;SDS011;55953;51.650;-0.522;2023-05-24T03:53:20;12.30;;;3.80;;
68910;SDS011;55953;51.650;-0.522;2023-05-24T03:55:50;8.10;;;3.60;;
68910;SDS011;55953;51.650;-0.522;2023-05-24T03:58:18;12.80;;;4.00;;
68910;SDS011;55953;51.650;-0.522;2023-05-24T04:00:46;13.20;;;4.10;;
68910;SDS011;55953;51.650;-0.522;2023-05-24T04:03:14;13.50;;;4.00;;
68910;SDS011;55953;51.650;-0.522;2023-05-24T04:05:42;10.60;;;3.90;;
68910;SDS011;55953;51.650;-0.522;2023-05-24T04:08:10;12.50;;;3.60;;
68910;SDS011;55953;51.650;-0.522;2023-05-24T04:10:38;13.10;;;4.00;;
68910;SDS011;55953;51.650;-0.522;2023-05-24T04:13:10;10.60;;;3.50;;
68910;SDS011;55953;51.650;-0.522;2023-05-24T04:15:37;11.90;;;4.30;;
68910;SDS011;55953;51.650;-0.522;2023-05-24T04:18:05;10.80;;;3.80;;
68910;SDS011;55953;51.650;-0.522;2023-05-24T04:20:34;12.80;;;4.30;;
68910;SDS011;55953;51.650;-0.522;2023-05-24T04:23:02;12.30;;;3.80;;
68910;SDS011;55953;51.650;-0.522;2023-05-24T04:25:30;13.90;;;4.00;;
68910;SDS011;55953;51.650;-0.522;2023-05-24T04:28:01;13.00;;;3.50;;
68910;SDS011;55953;51.650;-0.522;2023-05-24T04:30:31;12.40;;;3.70;;
68910;SDS011;55953;51.650;-0.522;2023-05-24T04:32:59;12.10;;;3.60;;
68910;SDS011;55953;51.650;-0.522;2023-05-24T04:35:27;12.50;;;3.80;;
68910;SDS011;55953;51.650;-0.522;2023-05-24T04:37:56;11.20;;;3.70;;
68910;SDS011;55953;51.650;-0.522;2023-05-24T04:40:26;11.60;;;3.40;;
68910;SDS011;55953;51.650;-0.522;2023-05-24T04:42:54;14.10;;;4.40;;
68910;SDS011;55953;51.650;-0.522;2023-05-24T04:45:21;12.30;;;3.60;;
68910;SDS011;55953;51.650;-0.522;2023-05-24T04:47:49;15.50;;;4.30;;
68910;SDS011;55953;51.650;-0.522;2023-05-24T04:50:17;11.00;;;4.10;;
68910;SDS011;55953;51.650;-0.522;2023-05-24T04:52:45;17.90;;;4.50;;
68910;SDS011;55953;51.650;-0.522;2023-05-24T04:55:13;13.60;;;3.80;;
68910;SDS011;55953;51.650;-0.522;2023-05-24T04:57:41;15.50;;;4.60;;
68910;SDS011;55953;51.650;-0.522;2023-05-24T05:00:09;13.20;;;4.00;;
68910;SDS011;55953;51.650;-0.522;2023-05-24T05:02:38;15.00;;;4.10;;
68910;SDS011;55953;51.650;-0.522;2023-05-24T05:05:06;16.90;;;4.10;;
68910;SDS011;55953;51.650;-0.522;2023-05-24T05:07:35;10.70;;;3.40;;
68910;SDS011;55953;51.650;-0.522;2023-05-24T05:10:04;15.10;;;4.20;;
68910;SDS011;55953;51.650;-0.522;2023-05-24T05:12:33;13.40;;;4.20;;
68910;SDS011;55953;51.650;-0.522;2023-05-24T05:15:00;14.10;;;3.90;;
68910;SDS011;55953;51.650;-0.522;2023-05-24T05:17:28;11.30;;;3.90;;
68910;SDS011;55953;51.650;-0.522;2023-05-24T05:19:56;15.60;;;4.50;;
68910;SDS011;55953;51.650;-0.522;2023-05-24T05:22:24;13.60;;;3.70;;
68910;SDS011;55953;51.650;-0.522;2023-05-24T05:24:52;17.50;;;4.40;;
68910;SDS011;55953;51.650;-0.522;2023-05-24T05:27:20;14.70;;;4.10;;
68910;SDS011;55953;51.650;-0.522;2023-05-24T05:29:48;17.70;;;3.80;;
68910;SDS011;55953;51.650;-0.522;2023-05-24T05:32:16;16.10;;;4.00;;
68910;SDS011;55953;51.650;-0.522;2023-05-24T05:34:44;14.70;;;4.70;;
68910;SDS011;55953;51.650;-0.522;2023-05-24T05:37:12;11.10;;;4.60;;
68910;SDS011;55953;51.650;-0.522;2023-05-24T05:39:40;16.30;;;3.90;;
68910;SDS011;55953;51.650;-0.522;2023-05-24T05:42:07;15.70;;;4.50;;
68910;SDS011;55953;51.650;-0.522;2023-05-24T05:44:35;15.50;;;4.60;;
68910;SDS011;55953;51.650;-0.522;2023-05-24T05:47:03;14.50;;;4.20;;
68910;SDS011;55953;51.650;-0.522;2023-05-24T05:49:33;16.80;;;3.80;;
68910;SDS011;55953;51.650;-0.522;2023-05-24T05:52:05;14.10;;;4.20;;
68910;SDS011;55953;51.650;-0.522;2023-05-24T05:54:32;12.30;;;3.70;;
68910;SDS011;55953;51.650;-0.522;2023-05-24T05:57:01;19.40;;;4.10;;
68910;SDS011;55953;51.650;-0.522;2023-05-24T05:59:29;15.50;;;4.00;;
68910;SDS011;55953;51.650;-0.522;2023-05-24T06:01:57;15.30;;;4.00;;
68910;SDS011;55953;51.650;-0.522;2023-05-24T06:04:24;13.20;;;3.80;;
68910;SDS011;55953;51.650;-0.522;2023-05-24T06:06:52;15.90;;;4.40;;
68910;SDS011;55953;51.650;-0.522;2023-05-24T06:09:21;13.90;;;3.70;;
68910;SDS011;55953;51.650;-0.522;2023-05-24T06:11:49;13.80;;;3.70;;
68910;SDS011;55953;51.650;-0.522;2023-05-24T06:14:17;16.80;;;4.40;;
68910;SDS011;55953;51.650;-0.522;2023-05-24T06:16:46;13.50;;;4.20;;
68910;SDS011;55953;51.650;-0.522;2023-05-24T06:19:15;18.70;;;4.20;;
68910;SDS011;55953;51.650;-0.522;2023-05-24T06:21:43;13.70;;;4.00;;
68910;SDS011;55953;51.650;-0.522;2023-05-24T06:24:16;15.50;;;4.00;;
68910;SDS011;55953;51.650;-0.522;2023-05-24T06:26:50;14.50;;;4.90;;
68910;SDS011;55953;51.650;-0.522;2023-05-24T06:31:49;11.90;;;4.20;;
68910;SDS011;55953;51.650;-0.522;2023-05-24T06:34:18;13.40;;;3.70;;
68910;SDS011;55953;51.650;-0.522;2023-05-24T06:36:48;16.70;;;4.00;;
68910;SDS011;55953;51.650;-0.522;2023-05-24T06:39:18;16.30;;;4.90;;
68910;SDS011;55953;51.650;-0.522;2023-05-24T06:41:46;15.50;;;4.00;;
68910;SDS011;55953;51.650;-0.522;2023-05-24T06:44:14;13.20;;;4.20;;
68910;SDS011;55953;51.650;-0.522;2023-05-24T06:46:46;14.40;;;4.40;;
68910;SDS011;55953;51.650;-0.522;2023-05-24T06:49:14;17.00;;;4.20;;
68910;SDS011;55953;51.650;-0.522;2023-05-24T06:51:42;12.80;;;4.10;;
68910;SDS011;55953;51.650;-0.522;2023-05-24T06:54:10;13.10;;;3.80;;
68910;SDS011;55953;51.650;-0.522;2023-05-24T06:56:38;15.70;;;4.40;;
68910;SDS011;55953;51.650;-0.522;2023-05-24T06:59:06;14.10;;;4.10;;
68910;SDS011;55953;51.650;-0.522;2023-05-24T07:01:35;16.20;;;5.10;;
68910;SDS011;55953;51.650;-0.522;2023-05-24T07:04:06;11.90;;;4.20;;
68910;SDS011;55953;51.650;-0.522;2023-05-24T07:06:34;17.60;;;4.70;;
68910;SDS011;55953;51.650;-0.522;2023-05-24T07:09:04;13.80;;;4.40;;
68910;SDS011;55953;51.650;-0.522;2023-05-24T07:11:32;9.80;;;4.00;;
68910;SDS011;55953;51.650;-0.522;2023-05-24T07:14:00;13.90;;;4.30;;
68910;SDS011;55953;51.650;-0.522;2023-05-24T07:16:28;12.00;;;4.20;;
68910;SDS011;55953;51.650;-0.522;2023-05-24T07:18:56;17.20;;;4.50;;
68910;SDS011;55953;51.650;-0.522;2023-05-24T07:21:25;14.10;;;5.10;;
68910;SDS011;55953;51.650;-0.522;2023-05-24T07:23:52;14.30;;;3.70;;
68910;SDS011;55953;51.650;-0.522;2023-05-24T07:26:20;15.20;;;4.90;;
68910;SDS011;55953;51.650;-0.522;2023-05-24T07:28:48;10.10;;;4.00;;
68910;SDS011;55953;51.650;-0.522;2023-05-24T07:31:17;11.70;;;4.40;;
68910;SDS011;55953;51.650;-0.522;2023-05-24T07:33:44;14.80;;;4.80;;
68910;SDS011;55953;51.650;-0.522;2023-05-24T07:36:14;13.50;;;4.40;;
68910;SDS011;55953;51.650;-0.522;2023-05-24T07:38:42;16.00;;;4.40;;
68910;SDS011;55953;51.650;-0.522;2023-05-24T07:41:12;12.30;;;3.90;;
68910;SDS011;55953;51.650;-0.522;2023-05-24T07:43:41;10.70;;;3.60;;
68910;SDS011;55953;51.650;-0.522;2023-05-24T07:46:09;13.70;;;4.40;;
68910;SDS011;55953;51.650;-0.522;2023-05-24T07:48:37;14.30;;;4.10;;
68910;SDS011;55953;51.650;-0.522;2023-05-24T07:51:05;14.30;;;4.40;;
68910;SDS011;55953;51.650;-0.522;2023-05-24T07:53:34;11.70;;;4.70;;
68910;SDS011;55953;51.650;-0.522;2023-05-24T07:56:04;15.00;;;4.40;;
68910;SDS011;55953;51.650;-0.522;2023-05-24T07:58:34;13.00;;;4.30;;
68910;SDS011;55953;51.650;-0.522;2023-05-24T08:01:02;17.20;;;4.60;;
68910;SDS011;55953;51.650;-0.522;2023-05-24T08:03:30;14.80;;;4.80;;
68910;SDS011;55953;51.650;-0.522;2023-05-24T08:05:59;15.70;;;4.20;;
68910;SDS011;55953;51.650;-0.522;2023-05-24T08:08:27;13.30;;;4.70;;
68910;SDS011;55953;51.650;-0.522;2023-05-24T08:10:54;17.30;;;4.90;;
68910;SDS011;55953;51.650;-0.522;2023-05-24T08:13:22;10.40;;;4.30;;
68910;SDS011;55953;51.650;-0.522;2023-05-24T08:15:51;12.60;;;4.30;;
68910;SDS011;55953;51.650;-0.522;2023-05-24T08:18:19;10.40;;;4.10;;
68910;SDS011;55953;51.650;-0.522;2023-05-24T08:20:47;14.90;;;4.40;;
68910;SDS011;55953;51.650;-0.522;2023-05-24T08:23:15;9.80;;;3.70;;
68910;SDS011;55953;51.650;-0.522;2023-05-24T08:25:43;12.40;;;4.60;;
68910;SDS011;55953;51.650;-0.522;2023-05-24T08:28:11;11.20;;;4.00;;
68910;SDS011;55953;51.650;-0.522;2023-05-24T08:30:39;10.90;;;4.00;;
68910;SDS011;55953;51.650;-0.522;2023-05-24T08:33:07;9.60;;;3.80;;
68910;SDS011;55953;51.650;-0.522;2023-05-24T08:35:35;11.50;;;3.70;;
68910;SDS011;55953;51.650;-0.522;2023-05-24T08:38:03;13.70;;;3.90;;
68910;SDS011;55953;51.650;-0.522;2023-05-24T08:40:31;13.70;;;4.00;;
68910;SDS011;55953;51.650;-0.522;2023-05-24T08:43:00;13.90;;;4.50;;
68910;SDS011;55953;51.650;-0.522;2023-05-24T08:45:29;17.30;;;4.40;;
68910;SDS011;55953;51.650;-0.522;2023-05-24T08:47:59;13.90;;;5.10;;
68910;SDS011;55953;51.650;-0.522;2023-05-24T08:50:30;12.20;;;4.30;;
68910;SDS011;55953;51.650;-0.522;2023-05-24T08:52:59;9.20;;;3.80;;
68910;SDS011;55953;51.650;-0.522;2023-05-24T08:55:30;12.00;;;3.90;;
68910;SDS011;55953;51.650;-0.522;2023-05-24T08:58:00;11.10;;;4.10;;
68910;SDS011;55953;51.650;-0.522;2023-05-24T09:00:28;14.40;;;4.50;;
68910;SDS011;55953;51.650;-0.522;2023-05-24T09:02:57;13.50;;;4.20;;
68910;SDS011;55953;51.650;-0.522;2023-05-24T09:05:27;12.30;;;4.00;;
68910;SDS011;55953;51.650;-0.522;2023-05-24T09:07:59;12.20;;;4.30;;
68910;SDS011;55953;51.650;-0.522;2023-05-24T09:10:28;12.80;;;5.10;;
68910;SDS011;55953;51.650;-0.522;2023-05-24T09:13:14;13.00;;;4.50;;
68910;SDS011;55953;51.650;-0.522;2023-05-24T09:15:42;14.00;;;4.30;;
68910;SDS011;55953;51.650;-0.522;2023-05-24T09:18:11;12.60;;;4.70;;
68910;SDS011;55953;51.650;-0.522;2023-05-24T09:20:38;9.90;;;4.30;;
68910;SDS011;55953;51.650;-0.522;2023-05-24T09:23:07;12.80;;;5.30;;
68910;SDS011;55953;51.650;-0.522;2023-05-24T09:25:35;11.70;;;4.00;;
68910;SDS011;55953;51.650;-0.522;2023-05-24T09:28:06;10.80;;;4.50;;
68910;SDS011;55953;51.650;-0.522;2023-05-24T09:30:35;13.80;;;4.10;;
68910;SDS011;55953;51.650;-0.522;2023-05-24T09:33:05;13.10;;;4.50;;
68910;SDS011;55953;51.650;-0.522;2023-05-24T09:35:34;16.40;;;4.80;;
68910;SDS011;55953;51.650;-0.522;2023-05-24T09:38:03;12.30;;;4.30;;
68910;SDS011;55953;51.650;-0.522;2023-05-24T09:40:31;13.80;;;4.50;;
68910;SDS011;55953;51.650;-0.522;2023-05-24T09:43:06;12.30;;;4.40;;
68910;SDS011;55953;51.650;-0.522;2023-05-24T09:45:42;10.80;;;4.10;;
68910;SDS011;55953;51.650;-0.522;2023-05-24T09:48:15;11.60;;;3.90;;
68910;SDS011;55953;51.650;-0.522;2023-05-24T09:50:58;13.90;;;4.50;;
68910;SDS011;55953;51.650;-0.522;2023-05-24T09:53:34;10.30;;;3.80;;
68910;SDS011;55953;51.650;-0.522;2023-05-24T09:56:04;11.30;;;4.30;;
68910;SDS011;55953;51.650;-0.522;2023-05-24T09:58:35;13.50;;;4.10;;
68910;SDS011;55953;51.650;-0.522;2023-05-24T10:01:05;12.00;;;4.10;;
68910;SDS011;55953;51.650;-0.522;2023-05-24T10:03:35;10.60;;;4.20;;
68910;SDS011;55953;51.650;-0.522;2023-05-24T10:06:05;11.70;;;4.20;;
68910;SDS011;55953;51.650;-0.522;2023-05-24T10:08:34;12.30;;;5.10;;
68910;SDS011;55953;51.650;-0.522;2023-05-24T10:11:03;14.20;;;4.60;;
68910;SDS011;55953;51.650;-0.522;2023-05-24T10:13:32;11.00;;;4.30;;
68910;SDS011;55953;51.650;-0.522;2023-05-24T10:16:02;12.10;;;4.40;;
68910;SDS011;55953;51.650;-0.522;2023-05-24T10:18:30;11.20;;;4.00;;
68910;SDS011;55953;51.650;-0.522;2023-05-24T10:20:59;11.90;;;4.10;;
68910;SDS011;55953;51.650;-0.522;2023-05-24T10:23:29;12.40;;;4.20;;
68910;SDS011;55953;51.650;-0.522;2023-05-24T10:26:03;11.80;;;4.60;;
68910;SDS011;55953;51.650;-0.522;2023-05-24T10:28:43;12.10;;;4.10;;
68910;SDS011;55953;51.650;-0.522;2023-05-24T10:31:17;8.10;;;3.90;;
68910;SDS011;55953;51.650;-0.522;2023-05-24T10:33:51;11.20;;;3.90;;
68910;SDS011;55953;51.650;-0.522;2023-05-24T10:36:28;10.60;;;4.00;;
68910;SDS011;55953;51.650;-0.522;2023-05-24T10:38:57;11.10;;;4.10;;
68910;SDS011;55953;51.650;-0.522;2023-05-24T10:41:25;10.90;;;3.70;;
68910;SDS011;55953;51.650;-0.522;2023-05-24T10:43:56;8.60;;;3.70;;
68910;SDS011;55953;51.650;-0.522;2023-05-24T10:47:00;11.00;;;3.90;;
68910;SDS011;55953;51.650;-0.522;2023-05-24T10:49:50;11.60;;;4.20;;
68910;SDS011;55953;51.650;-0.522;2023-05-24T10:52:19;15.70;;;4.40;;
68910;SDS011;55953;51.650;-0.522;2023-05-24T10:55:07;12.70;;;5.00;;
68910;SDS011;55953;51.650;-0.522;2023-05-24T10:57:37;9.30;;;4.20;;
68910;SDS011;55953;51.650;-0.522;2023-05-24T11:03:02;9.90;;;4.10;;
68910;SDS011;55953;51.650;-0.522;2023-05-24T11:05:55;10.20;;;4.10;;
68910;SDS011;55953;51.650;-0.522;2023-05-24T11:08:29;12.80;;;4.40;;
68910;SDS011;55953;51.650;-0.522;2023-05-24T11:11:25;11.30;;;4.30;;
68910;SDS011;55953;51.650;-0.522;2023-05-24T11:13:59;8.00;;;4.30;;
68910;SDS011;55953;51.650;-0.522;2023-05-24T11:16:36;12.50;;;4.70;;
68910;SDS011;55953;51.650;-0.522;2023-05-24T11:19:13;14.30;;;4.50;;
68910;SDS011;55953;51.650;-0.522;2023-05-24T11:21:50;12.40;;;5.10;;
68910;SDS011;55953;51.650;-0.522;2023-05-24T11:26:54;11.90;;;4.50;;
68910;SDS011;55953;51.650;-0.522;2023-05-24T11:29:23;13.70;;;4.80;;
68910;SDS011;55953;51.650;-0.522;2023-05-24T11:31:53;9.90;;;4.50;;
68910;SDS011;55953;51.650;-0.522;2023-05-24T11:34:32;13.70;;;5.00;;
68910;SDS011;55953;51.650;-0.522;2023-05-24T11:37:02;11.70;;;4.70;;
68910;SDS011;55953;51.650;-0.522;2023-05-24T11:39:34;13.70;;;5.50;;
68910;SDS011;55953;51.650;-0.522;2023-05-24T11:42:04;11.20;;;4.60;;
68910;SDS011;55953;51.650;-0.522;2023-05-24T11:44:34;12.80;;;5.10;;
68910;SDS011;55953;51.650;-0.522;2023-05-24T11:47:07;10.20;;;4.90;;
68910;SDS011;55953;51.650;-0.522;2023-05-24T11:49:35;12.30;;;5.40;;
68910;SDS011;55953;51.650;-0.522;2023-05-24T11:52:03;11.60;;;5.30;;
68910;SDS011;55953;51.650;-0.522;2023-05-24T11:54:31;12.90;;;5.20;;
68910;SDS011;55953;51.650;-0.522;2023-05-24T11:57:01;13.70;;;5.50;;
68910;SDS011;55953;51.650;-0.522;2023-05-24T11:59:30;11.90;;;5.20;;
68910;SDS011;55953;51.650;-0.522;2023-05-24T12:02:05;13.80;;;5.50;;
68910;SDS011;55953;51.650;-0.522;2023-05-24T12:04:33;11.80;;;5.20;;
68910;SDS011;55953;51.650;-0.522;2023-05-24T12:07:02;13.30;;;4.90;;
68910;SDS011;55953;51.650;-0.522;2023-05-24T12:09:30;10.60;;;5.00;;
68910;SDS011;55953;51.650;-0.522;2023-05-24T12:11:58;11.80;;;5.20;;
68910;SDS011;55953;51.650;-0.522;2023-05-24T12:14:28;10.20;;;5.20;;
68910;SDS011;55953;51.650;-0.522;2023-05-24T12:17:00;13.10;;;4.90;;
68910;SDS011;55953;51.650;-0.522;2023-05-24T12:19:30;10.30;;;4.50;;
68910;SDS011;55953;51.650;-0.522;2023-05-24T12:22:04;13.00;;;4.70;;
68910;SDS011;55953;51.650;-0.522;2023-05-24T12:24:34;14.10;;;5.30;;
68910;SDS011;55953;51.650;-0.522;2023-05-24T12:27:04;13.80;;;5.50;;
68910;SDS011;55953;51.650;-0.522;2023-05-24T12:29:39;11.10;;;5.40;;
68910;SDS011;55953;51.650;-0.522;2023-05-24T12:32:09;14.00;;;6.00;;
68910;SDS011;55953;51.650;-0.522;2023-05-24T12:34:42;13.00;;;5.40;;
68910;SDS011;55953;51.650;-0.522;2023-05-24T12:37:14;12.80;;;5.30;;
68910;SDS011;55953;51.650;-0.522;2023-05-24T12:39:42;10.30;;;5.40;;
68910;SDS011;55953;51.650;-0.522;2023-05-24T12:42:11;10.10;;;4.80;;
68910;SDS011;55953;51.650;-0.522;2023-05-24T12:44:40;12.10;;;5.40;;
68910;SDS011;55953;51.650;-0.522;2023-05-24T12:47:09;11.90;;;5.30;;
68910;SDS011;55953;51.650;-0.522;2023-05-24T12:49:37;12.00;;;5.40;;
68910;SDS011;55953;51.650;-0.522;2023-05-24T12:52:05;13.40;;;5.00;;
68910;SDS011;55953;51.650;-0.522;2023-05-24T12:54:33;15.00;;;5.30;;
68910;SDS011;55953;51.650;-0.522;2023-05-24T12:57:01;7.80;;;4.80;;
68910;SDS011;55953;51.650;-0.522;2023-05-24T12:59:30;11.70;;;4.90;;
68910;SDS011;55953;51.650;-0.522;2023-05-24T13:01:58;10.20;;;5.30;;
68910;SDS011;55953;51.650;-0.522;2023-05-24T13:04:26;10.90;;;5.30;;
68910;SDS011;55953;51.650;-0.522;2023-05-24T13:06:54;10.90;;;4.40;;
68910;SDS011;55953;51.650;-0.522;2023-05-24T13:09:23;10.50;;;5.10;;
68910;SDS011;55953;51.650;-0.522;2023-05-24T13:11:54;8.70;;;4.60;;
68910;SDS011;55953;51.650;-0.522;2023-05-24T13:14:22;11.50;;;5.20;;
68910;SDS011;55953;51.650;-0.522;2023-05-24T13:16:50;10.40;;;4.40;;
68910;SDS011;55953;51.650;-0.522;2023-05-24T13:19:18;9.30;;;4.90;;
68910;SDS011;55953;51.650;-0.522;2023-05-24T13:21:46;9.80;;;4.70;;
68910;SDS011;55953;51.650;-0.522;2023-05-24T13:24:14;12.40;;;4.70;;
68910;SDS011;55953;51.650;-0.522;2023-05-24T13:26:43;9.70;;;5.00;;
68910;SDS011;55953;51.650;-0.522;2023-05-24T13:29:11;11.10;;;4.90;;
68910;SDS011;55953;51.650;-0.522;2023-05-24T13:31:43;10.90;;;4.70;;
68910;SDS011;55953;51.650;-0.522;2023-05-24T13:34:12;10.10;;;4.80;;
68910;SDS011;55953;51.650;-0.522;2023-05-24T13:36:41;11.20;;;4.30;;
68910;SDS011;55953;51.650;-0.522;2023-05-24T13:39:09;12.60;;;5.10;;
68910;SDS011;55953;51.650;-0.522;2023-05-24T13:44:10;8.30;;;4.50;;
68910;SDS011;55953;51.650;-0.522;2023-05-24T13:46:42;14.20;;;4.60;;
68910;SDS011;55953;51.650;-0.522;2023-05-24T13:49:11;9.40;;;4.30;;
68910;SDS011;55953;51.650;-0.522;2023-05-24T13:51:39;8.10;;;4.40;;
68910;SDS011;55953;51.650;-0.522;2023-05-24T13:54:07;10.10;;;4.60;;
68910;SDS011;55953;51.650;-0.522;2023-05-24T13:56:35;7.60;;;4.60;;
68910;SDS011;55953;51.650;-0.522;2023-05-24T13:59:05;8.60;;;4.40;;
68910;SDS011;55953;51.650;-0.522;2023-05-24T14:01:33;9.80;;;4.60;;
68910;SDS011;55953;51.650;-0.522;2023-05-24T14:06:33;8.60;;;4.30;;
68910;SDS011;55953;51.650;-0.522;2023-05-24T14:09:04;12.20;;;4.80;;
68910;SDS011;55953;51.650;-0.522;2023-05-24T14:11:36;10.90;;;5.10;;
68910;SDS011;55953;51.650;-0.522;2023-05-24T14:14:04;10.00;;;4.90;;
68910;SDS011;55953;51.650;-0.522;2023-05-24T14:16:34;9.10;;;4.90;;
68910;SDS011;55953;51.650;-0.522;2023-05-24T14:19:03;9.60;;;4.70;;
68910;SDS011;55953;51.650;-0.522;2023-05-24T14:21:32;11.50;;;5.50;;
68910;SDS011;55953;51.650;-0.522;2023-05-24T14:23:59;10.00;;;4.80;;
68910;SDS011;55953;51.650;-0.522;2023-05-24T14:26:27;11.90;;;4.60;;
68910;SDS011;55953;51.650;-0.522;2023-05-24T14:28:56;9.70;;;4.80;;
68910;SDS011;55953;51.650;-0.522;2023-05-24T14:31:23;10.00;;;4.50;;
68910;SDS011;55953;51.650;-0.522;2023-05-24T14:33:52;10.40;;;5.00;;
68910;SDS011;55953;51.650;-0.522;2023-05-24T14:36:19;10.00;;;4.90;;
68910;SDS011;55953;51.650;-0.522;2023-05-24T14:38:48;11.90;;;4.90;;
68910;SDS011;55953;51.650;-0.522;2023-05-24T14:41:16;8.70;;;4.70;;
68910;SDS011;55953;51.650;-0.522;2023-05-24T14:43:44;10.50;;;5.30;;
68910;SDS011;55953;51.650;-0.522;2023-05-24T14:46:12;10.10;;;4.70;;
68910;SDS011;55953;51.650;-0.522;2023-05-24T14:48:40;11.20;;;4.60;;
68910;SDS011;55953;51.650;-0.522;2023-05-24T14:51:08;9.40;;;4.80;;
68910;SDS011;55953;51.650;-0.522;2023-05-24T14:53:36;10.10;;;4.90;;
68910;SDS011;55953;51.650;-0.522;2023-05-24T14:56:04;9.30;;;4.40;;
68910;SDS011;55953;51.650;-0.522;2023-05-24T14:58:34;8.80;;;4.60;;
68910;SDS011;55953;51.650;-0.522;2023-05-24T15:01:02;7.90;;;4.60;;
68910;SDS011;55953;51.650;-0.522;2023-05-24T15:03:30;10.60;;;4.20;;
68910;SDS011;55953;51.650;-0.522;2023-05-24T15:05:59;7.70;;;4.40;;